createdAt,value
2016-09-26T00:00:10.989Z,1010.26
2016-09-26T00:01:10.936Z,1010.28
2016-09-26T00:02:11.120Z,1010.33
2016-09-26T00:03:10.756Z,1010.37
2016-09-26T00:04:11.109Z,1010.38
2016-09-26T00:05:10.936Z,1010.38
2016-09-26T00:06:11.153Z,1010.36
2016-09-26T00:07:10.831Z,1010.36
2016-09-26T00:08:11.002Z,1010.4
2016-09-26T00:09:10.835Z,1010.4
2016-09-26T00:10:10.945Z,1010.38
2016-09-26T00:11:11.359Z,1010.41
2016-09-26T00:12:11.007Z,1010.41
2016-09-26T00:13:11.572Z,1010.4
2016-09-26T00:14:10.961Z,1010.41
2016-09-26T00:15:11.084Z,1010.47
2016-09-26T00:16:11.121Z,1010.45
2016-09-26T00:17:11.263Z,1010.47
2016-09-26T00:18:11.082Z,1010.47
2016-09-26T00:19:11.175Z,1010.42
2016-09-26T00:20:11.089Z,1010.39
2016-09-26T00:21:11.243Z,1010.4
2016-09-26T00:22:11.241Z,1010.39
2016-09-26T00:23:11.225Z,1010.42
2016-09-26T00:24:11.084Z,1010.39
2016-09-26T00:25:11.254Z,1010.4
2016-09-26T00:26:11.026Z,1010.41
2016-09-26T00:27:11.455Z,1010.4
2016-09-26T00:28:11.650Z,1010.48
2016-09-26T00:29:11.691Z,1010.49
2016-09-26T00:30:11.306Z,1010.49
2016-09-26T00:31:11.215Z,1010.51
2016-09-26T00:32:11.556Z,1010.46
2016-09-26T00:33:11.365Z,1010.46
2016-09-26T00:34:11.346Z,1010.5
2016-09-26T00:35:11.446Z,1010.43
2016-09-26T00:36:11.311Z,1010.42
2016-09-26T00:37:11.304Z,1010.45
2016-09-26T00:38:11.313Z,1010.47
2016-09-26T00:39:12.005Z,1010.48
2016-09-26T00:40:11.431Z,1010.5
2016-09-26T00:41:11.424Z,1010.45
2016-09-26T00:42:11.846Z,1010.49
2016-09-26T00:43:11.361Z,1010.48
2016-09-26T00:44:11.724Z,1010.47
2016-09-26T00:45:11.869Z,1010.48
2016-09-26T00:46:11.705Z,1010.51
2016-09-26T00:47:11.830Z,1010.54
2016-09-26T00:48:11.817Z,1010.52
2016-09-26T00:49:11.602Z,1010.57
2016-09-26T00:50:11.917Z,1010.54
2016-09-26T00:51:11.962Z,1010.55
2016-09-26T00:52:11.771Z,1010.51
2016-09-26T00:53:11.633Z,1010.52
2016-09-26T00:54:11.699Z,1010.5
2016-09-26T00:55:11.771Z,1010.5
2016-09-26T00:56:12.001Z,1010.46
2016-09-26T00:57:11.853Z,1010.47
2016-09-26T00:58:11.877Z,1010.49
2016-09-26T00:59:12.459Z,1010.49
2016-09-26T01:00:11.787Z,1010.5
2016-09-26T01:01:11.770Z,1010.5
2016-09-26T01:02:12.372Z,1010.46
2016-09-26T01:03:11.872Z,1010.47
2016-09-26T01:04:11.992Z,1010.48
2016-09-26T01:05:12.136Z,1010.49
2016-09-26T01:06:11.890Z,1010.48
2016-09-26T01:07:12.287Z,1010.47
2016-09-26T01:08:12.151Z,1010.51
2016-09-26T01:09:12.089Z,1010.52
2016-09-26T01:10:12.191Z,1010.58
2016-09-26T01:11:12.260Z,1010.57
2016-09-26T01:12:12.316Z,1010.58
2016-09-26T01:13:12.375Z,1010.56
2016-09-26T01:14:12.236Z,1010.55
2016-09-26T01:15:12.268Z,1010.57
2016-09-26T01:16:12.595Z,1010.56
2016-09-26T01:17:12.420Z,1010.59
2016-09-26T01:18:12.665Z,1010.54
2016-09-26T01:19:12.492Z,1010.53
2016-09-26T01:20:12.660Z,1010.58
2016-09-26T01:21:12.539Z,1010.57
2016-09-26T01:22:12.234Z,1010.61
2016-09-26T01:23:12.409Z,1010.61
2016-09-26T01:24:12.560Z,1010.62
2016-09-26T01:25:12.417Z,1010.66
2016-09-26T01:26:12.373Z,1010.62
2016-09-26T01:27:12.645Z,1010.62
2016-09-26T01:28:12.327Z,1010.62
2016-09-26T01:29:12.410Z,1010.65
2016-09-26T01:30:12.547Z,1010.66
2016-09-26T01:31:12.916Z,1010.69
2016-09-26T01:32:12.764Z,1010.7
2016-09-26T01:33:13.093Z,1010.73
2016-09-26T01:34:12.513Z,1010.72
2016-09-26T01:35:12.535Z,1010.78
2016-09-26T01:36:12.585Z,1010.77
2016-09-26T01:37:12.692Z,1010.73
2016-09-26T01:38:12.551Z,1010.73
2016-09-26T01:39:13.472Z,1010.73
2016-09-26T01:40:12.749Z,1010.72
2016-09-26T01:41:12.711Z,1010.76
2016-09-26T01:42:13.042Z,1010.76
2016-09-26T01:43:12.976Z,1010.74
2016-09-26T01:44:12.742Z,1010.75
2016-09-26T01:45:12.950Z,1010.76
2016-09-26T01:46:13.248Z,1010.78
2016-09-26T01:47:12.966Z,1010.76
2016-09-26T01:48:13.257Z,1010.76
2016-09-26T01:49:12.815Z,1010.73
2016-09-26T01:50:13.523Z,1010.76
2016-09-26T01:51:12.918Z,1010.74
2016-09-26T01:52:13.138Z,1010.73
2016-09-26T01:53:13.006Z,1010.7
2016-09-26T01:54:13.326Z,1010.73
2016-09-26T01:55:13.430Z,1010.68
2016-09-26T01:56:12.925Z,1010.69
2016-09-26T01:57:13.256Z,1010.69
2016-09-26T01:58:13.391Z,1010.71
2016-09-26T01:59:13.082Z,1010.71
2016-09-26T02:00:13.218Z,1010.78
2016-09-26T02:01:13.069Z,1010.79
2016-09-26T02:02:13.254Z,1010.79
2016-09-26T02:03:13.499Z,1010.82
2016-09-26T02:04:13.520Z,1010.83
2016-09-26T02:05:13.237Z,1010.8
2016-09-26T02:06:13.539Z,1010.81
2016-09-26T02:07:13.263Z,1010.8
2016-09-26T02:08:13.457Z,1010.79
2016-09-26T02:09:13.580Z,1010.79
2016-09-26T02:10:13.897Z,1010.78
2016-09-26T02:11:13.254Z,1010.77
2016-09-26T02:12:13.409Z,1010.77
2016-09-26T02:13:13.543Z,1010.79
2016-09-26T02:14:13.634Z,1010.76
2016-09-26T02:15:13.886Z,1010.78
2016-09-26T02:16:13.875Z,1010.79
2016-09-26T02:17:13.863Z,1010.79
2016-09-26T02:18:14.034Z,1010.8
2016-09-26T02:19:14.293Z,1010.81
2016-09-26T02:20:13.825Z,1010.85
2016-09-26T02:21:13.558Z,1010.87
2016-09-26T02:22:14.008Z,1010.88
2016-09-26T02:23:13.623Z,1010.9
2016-09-26T02:24:13.756Z,1010.87
2016-09-26T02:25:13.793Z,1010.85
2016-09-26T02:26:13.578Z,1010.88
2016-09-26T02:27:13.941Z,1010.86
2016-09-26T02:28:13.537Z,1010.9
2016-09-26T02:29:13.743Z,1010.89
2016-09-26T02:30:13.832Z,1010.9
2016-09-26T02:31:13.724Z,1010.93
2016-09-26T02:32:13.817Z,1010.95
2016-09-26T02:33:13.928Z,1010.95
2016-09-26T02:34:14.027Z,1010.95
2016-09-26T02:35:14.038Z,1010.97
2016-09-26T02:36:13.873Z,1010.93
2016-09-26T02:37:13.966Z,1010.98
2016-09-26T02:38:14.317Z,1010.91
2016-09-26T02:39:14.346Z,1010.93
2016-09-26T02:40:14.026Z,1010.89
2016-09-26T02:41:13.938Z,1010.91
2016-09-26T02:42:14.016Z,1010.92
2016-09-26T02:43:14.090Z,1010.92
2016-09-26T02:44:14.261Z,1010.96
2016-09-26T02:45:14.191Z,1010.98
2016-09-26T02:46:14.278Z,1010.96
2016-09-26T02:47:14.569Z,1010.98
2016-09-26T02:48:14.169Z,1011.05
2016-09-26T02:49:14.726Z,1011.09
2016-09-26T02:50:14.223Z,1011.1
2016-09-26T02:51:14.296Z,1011.14
2016-09-26T02:52:14.103Z,1011.15
2016-09-26T02:53:14.308Z,1011.13
2016-09-26T02:54:14.294Z,1011.08
2016-09-26T02:55:14.484Z,1011.12
2016-09-26T02:56:14.550Z,1011.07
2016-09-26T02:57:14.612Z,1011.08
2016-09-26T02:58:14.704Z,1011.1
2016-09-26T02:59:14.581Z,1011.1
2016-09-26T03:00:14.442Z,1011.08
2016-09-26T03:01:14.416Z,1011.06
2016-09-26T03:02:14.536Z,1011.1
2016-09-26T03:03:14.319Z,1011.11
2016-09-26T03:04:14.480Z,1011.09
2016-09-26T03:05:14.690Z,1011.14
2016-09-26T03:06:14.577Z,1011.14
2016-09-26T03:07:14.744Z,1011.23
2016-09-26T03:08:14.660Z,1011.22
2016-09-26T03:09:14.452Z,1011.22
2016-09-26T03:10:14.610Z,1011.26
2016-09-26T03:11:14.613Z,1011.26
2016-09-26T03:12:14.641Z,1011.25
2016-09-26T03:13:14.589Z,1011.27
2016-09-26T03:14:14.660Z,1011.3
2016-09-26T03:15:14.656Z,1011.3
2016-09-26T03:16:14.666Z,1011.26
2016-09-26T03:17:14.815Z,1011.27
2016-09-26T03:18:15.006Z,1011.31
2016-09-26T03:19:14.627Z,1011.3
2016-09-26T03:20:14.850Z,1011.33
2016-09-26T03:21:15.029Z,1011.36
2016-09-26T03:22:15.406Z,1011.38
2016-09-26T03:23:14.717Z,1011.42
2016-09-26T03:24:14.971Z,1011.4
2016-09-26T03:25:15.008Z,1011.38
2016-09-26T03:26:14.905Z,1011.4
2016-09-26T03:27:14.850Z,1011.37
2016-09-26T03:28:15.147Z,1011.39
2016-09-26T03:29:14.931Z,1011.39
2016-09-26T03:30:15.018Z,1011.42
2016-09-26T03:31:15.109Z,1011.43
2016-09-26T03:32:15.050Z,1011.43
2016-09-26T03:33:15.056Z,1011.49
2016-09-26T03:34:15.051Z,1011.46
2016-09-26T03:35:15.027Z,1011.47
2016-09-26T03:36:14.988Z,1011.48
2016-09-26T03:37:15.332Z,1011.42
2016-09-26T03:38:15.791Z,1011.44
2016-09-26T03:39:15.139Z,1011.41
2016-09-26T03:40:15.122Z,1011.4
2016-09-26T03:41:15.079Z,1011.46
2016-09-26T03:42:15.392Z,1011.43
2016-09-26T03:43:15.433Z,1011.45
2016-09-26T03:44:15.436Z,1011.46
2016-09-26T03:45:15.318Z,1011.43
2016-09-26T03:46:15.447Z,1011.43
2016-09-26T03:47:15.425Z,1011.46
2016-09-26T03:48:15.865Z,1011.42
2016-09-26T03:49:15.288Z,1011.42
2016-09-26T03:50:15.320Z,1011.4
2016-09-26T03:51:15.379Z,1011.41
2016-09-26T03:52:15.513Z,1011.42
2016-09-26T03:53:15.798Z,1011.43
2016-09-26T03:54:15.422Z,1011.44
2016-09-26T03:55:15.941Z,1011.48
2016-09-26T03:56:15.411Z,1011.48
2016-09-26T03:57:15.643Z,1011.47
2016-09-26T03:58:15.670Z,1011.48
2016-09-26T03:59:16.504Z,1011.46
2016-09-26T04:00:16.128Z,1011.45
2016-09-26T04:01:15.760Z,1011.46
2016-09-26T04:02:15.757Z,1011.45
2016-09-26T04:03:15.664Z,1011.43
2016-09-26T04:04:16.038Z,1011.43
2016-09-26T04:05:16.242Z,1011.4
2016-09-26T04:06:15.921Z,1011.42
2016-09-26T04:07:16.060Z,1011.41
2016-09-26T04:08:16.203Z,1011.42
2016-09-26T04:09:15.954Z,1011.43
2016-09-26T04:10:15.864Z,1011.45
2016-09-26T04:11:16.443Z,1011.43
2016-09-26T04:12:16.239Z,1011.44
2016-09-26T04:13:16.267Z,1011.42
2016-09-26T04:14:15.939Z,1011.44
2016-09-26T04:15:16.292Z,1011.4
2016-09-26T04:16:15.976Z,1011.38
2016-09-26T04:17:16.114Z,1011.4
2016-09-26T04:18:16.361Z,1011.4
2016-09-26T04:19:16.689Z,1011.41
2016-09-26T04:20:15.785Z,1011.39
2016-09-26T04:21:17.199Z,1011.42
2016-09-26T04:22:16.459Z,1011.43
2016-09-26T04:23:15.946Z,1011.41
2016-09-26T04:24:16.831Z,1011.41
2016-09-26T04:25:16.446Z,1011.43
2016-09-26T04:26:16.398Z,1011.41
2016-09-26T04:27:16.200Z,1011.44
2016-09-26T04:28:17.169Z,1011.45
2016-09-26T04:29:16.203Z,1011.47
2016-09-26T04:30:16.475Z,1011.47
2016-09-26T04:31:16.103Z,1011.48
2016-09-26T04:32:17.012Z,1011.48
2016-09-26T04:33:16.542Z,1011.48
2016-09-26T04:34:16.479Z,1011.49
2016-09-26T04:35:17.378Z,1011.44
2016-09-26T04:36:16.378Z,1011.43
2016-09-26T04:37:16.762Z,1011.46
2016-09-26T04:38:16.308Z,1011.48
2016-09-26T04:39:16.385Z,1011.5
2016-09-26T04:40:16.768Z,1011.52
2016-09-26T04:41:16.537Z,1011.5
2016-09-26T04:42:16.753Z,1011.51
2016-09-26T04:43:16.748Z,1011.48
2016-09-26T04:44:16.596Z,1011.51
2016-09-26T04:45:16.490Z,1011.52
2016-09-26T04:46:16.570Z,1011.5
2016-09-26T04:47:17.046Z,1011.51
2016-09-26T04:48:17.376Z,1011.53
2016-09-26T04:49:16.666Z,1011.53
2016-09-26T04:50:16.742Z,1011.52
2016-09-26T04:51:16.648Z,1011.51
2016-09-26T04:52:16.693Z,1011.46
2016-09-26T04:53:16.589Z,1011.49
2016-09-26T04:54:16.775Z,1011.5
2016-09-26T04:55:16.824Z,1011.51
2016-09-26T04:56:16.691Z,1011.47
2016-09-26T04:57:17.149Z,1011.5
2016-09-26T04:58:17.143Z,1011.46
2016-09-26T04:59:16.840Z,1011.51
2016-09-26T05:00:16.759Z,1011.51
2016-09-26T05:01:16.766Z,1011.51
2016-09-26T05:02:16.998Z,1011.54
2016-09-26T05:03:17.211Z,1011.57
2016-09-26T05:04:16.974Z,1011.5
2016-09-26T05:05:16.980Z,1011.51
2016-09-26T05:06:17.285Z,1011.5
2016-09-26T05:07:17.166Z,1011.52
2016-09-26T05:08:17.198Z,1011.52
2016-09-26T05:09:17.034Z,1011.54
2016-09-26T05:10:17.413Z,1011.58
2016-09-26T05:11:17.428Z,1011.6
2016-09-26T05:12:17.163Z,1011.58
2016-09-26T05:13:17.226Z,1011.6
2016-09-26T05:14:17.080Z,1011.64
2016-09-26T05:15:17.119Z,1011.65
2016-09-26T05:16:17.124Z,1011.61
2016-09-26T05:17:17.028Z,1011.6
2016-09-26T05:18:17.078Z,1011.64
2016-09-26T05:19:17.101Z,1011.7
2016-09-26T05:20:17.087Z,1011.7
2016-09-26T05:21:17.028Z,1011.72
2016-09-26T05:22:17.052Z,1011.71
2016-09-26T05:23:17.108Z,1011.76
2016-09-26T05:24:17.103Z,1011.72
2016-09-26T05:25:17.300Z,1011.75
2016-09-26T05:26:17.215Z,1011.73
2016-09-26T05:27:17.470Z,1011.78
2016-09-26T05:28:17.406Z,1011.73
2016-09-26T05:29:17.427Z,1011.77
2016-09-26T05:30:17.630Z,1011.8
2016-09-26T05:31:17.860Z,1011.8
2016-09-26T05:32:18.314Z,1011.8
2016-09-26T05:33:18.383Z,1011.84
2016-09-26T05:34:17.903Z,1011.8
2016-09-26T05:35:17.858Z,1011.82
2016-09-26T05:36:17.903Z,1011.83
2016-09-26T05:37:17.916Z,1011.85
2016-09-26T05:38:17.651Z,1011.84
2016-09-26T05:39:17.764Z,1011.87
2016-09-26T05:40:17.895Z,1011.83
2016-09-26T05:41:17.998Z,1011.85
2016-09-26T05:42:18.072Z,1011.88
2016-09-26T05:43:18.647Z,1011.88
2016-09-26T05:44:18.219Z,1011.9
2016-09-26T05:45:18.680Z,1011.92
2016-09-26T05:46:18.085Z,1011.92
2016-09-26T05:47:17.939Z,1011.92
2016-09-26T05:48:17.782Z,1011.94
2016-09-26T05:49:17.979Z,1011.95
2016-09-26T05:50:18.217Z,1011.95
2016-09-26T05:51:17.885Z,1011.95
2016-09-26T05:52:17.775Z,1011.89
2016-09-26T05:53:18.000Z,1011.95
2016-09-26T05:54:17.888Z,1011.93
2016-09-26T05:55:17.911Z,1011.94
2016-09-26T05:56:17.944Z,1011.92
2016-09-26T05:57:18.176Z,1011.94
2016-09-26T05:58:17.976Z,1011.97
2016-09-26T05:59:18.107Z,1011.93
2016-09-26T06:00:18.015Z,1011.99
2016-09-26T06:01:18.000Z,1011.97
2016-09-26T06:02:18.220Z,1011.99
2016-09-26T06:03:18.213Z,1012.01
2016-09-26T06:04:18.587Z,1012.02
2016-09-26T06:05:18.584Z,1012.05
2016-09-26T06:06:18.960Z,1012.03
2016-09-26T06:07:18.153Z,1012.02
2016-09-26T06:08:18.429Z,1012.03
2016-09-26T06:09:18.428Z,1012.07
2016-09-26T06:10:18.347Z,1012.07
2016-09-26T06:11:18.162Z,1012.05
2016-09-26T06:12:18.606Z,1012.08
2016-09-26T06:13:18.360Z,1012.12
2016-09-26T06:14:18.303Z,1012.09
2016-09-26T06:15:18.484Z,1012.07
2016-09-26T06:16:18.722Z,1012.1
2016-09-26T06:17:18.491Z,1012.08
2016-09-26T06:18:18.642Z,1012.07
2016-09-26T06:19:18.575Z,1012.02
2016-09-26T06:20:18.494Z,1012.03
2016-09-26T06:21:18.459Z,1012.05
2016-09-26T06:22:18.494Z,1012.03
2016-09-26T06:23:18.474Z,1012.07
2016-09-26T06:24:18.602Z,1012.03
2016-09-26T06:25:18.726Z,1012.05
2016-09-26T06:26:19.061Z,1012.06
2016-09-26T06:27:18.469Z,1012.07
2016-09-26T06:28:18.574Z,1012.03
2016-09-26T06:29:18.405Z,1012.03
2016-09-26T06:30:18.783Z,1012.02
2016-09-26T06:31:18.900Z,1012.04
2016-09-26T06:32:19.681Z,1012.06
2016-09-26T06:33:19.099Z,1012.06
2016-09-26T06:34:18.899Z,1012.09
2016-09-26T06:35:19.549Z,1012.11
2016-09-26T06:36:19.024Z,1012.12
2016-09-26T06:37:18.920Z,1012.13
2016-09-26T06:38:19.119Z,1012.12
2016-09-26T06:39:18.851Z,1012.13
2016-09-26T06:40:18.773Z,1012.13
2016-09-26T06:41:18.821Z,1012.15
2016-09-26T06:42:19.182Z,1012.11
2016-09-26T06:43:19.373Z,1012.16
2016-09-26T06:44:19.003Z,1012.13
2016-09-26T06:45:19.185Z,1012.17
2016-09-26T06:46:19.425Z,1012.16
2016-09-26T06:47:18.936Z,1012.16
2016-09-26T06:48:19.507Z,1012.16
2016-09-26T06:49:19.300Z,1012.15
2016-09-26T06:50:19.467Z,1012.15
2016-09-26T06:51:19.192Z,1012.17
2016-09-26T06:52:19.210Z,1012.13
2016-09-26T06:53:19.907Z,1012.15
2016-09-26T06:54:19.035Z,1012.12
2016-09-26T06:55:19.325Z,1012.14
2016-09-26T06:56:19.344Z,1012.17
2016-09-26T06:57:19.485Z,1012.15
2016-09-26T06:58:19.886Z,1012.1
2016-09-26T06:59:19.513Z,1012.11
2016-09-26T07:00:19.526Z,1012.16
2016-09-26T07:01:19.242Z,1012.17
2016-09-26T07:02:19.409Z,1012.2
2016-09-26T07:03:19.408Z,1012.2
2016-09-26T07:04:19.384Z,1012.25
2016-09-26T07:05:19.772Z,1012.26
2016-09-26T07:06:19.483Z,1012.24
2016-09-26T07:07:19.282Z,1012.27
2016-09-26T07:08:19.298Z,1012.26
2016-09-26T07:09:19.330Z,1012.3
2016-09-26T07:10:19.445Z,1012.3
2016-09-26T07:11:19.488Z,1012.3
2016-09-26T07:12:19.506Z,1012.29
2016-09-26T07:13:19.797Z,1012.27
2016-09-26T07:14:19.726Z,1012.33
2016-09-26T07:15:19.389Z,1012.3
2016-09-26T07:16:19.449Z,1012.24
2016-09-26T07:17:20.239Z,1012.25
2016-09-26T07:18:19.492Z,1012.27
2016-09-26T07:19:19.755Z,1012.29
2016-09-26T07:20:19.767Z,1012.31
2016-09-26T07:21:20.187Z,1012.28
2016-09-26T07:22:19.797Z,1012.36
2016-09-26T07:23:20.329Z,1012.32
2016-09-26T07:24:20.024Z,1012.29
2016-09-26T07:25:19.749Z,1012.35
2016-09-26T07:26:20.176Z,1012.33
2016-09-26T07:27:20.090Z,1012.35
2016-09-26T07:28:20.076Z,1012.34
2016-09-26T07:29:20.114Z,1012.36
2016-09-26T07:30:20.033Z,1012.35
2016-09-26T07:31:19.859Z,1012.35
2016-09-26T07:32:20.054Z,1012.35
2016-09-26T07:33:19.903Z,1012.4
2016-09-26T07:34:20.310Z,1012.35
2016-09-26T07:35:20.087Z,1012.39
2016-09-26T07:36:19.918Z,1012.38
2016-09-26T07:37:20.136Z,1012.43
2016-09-26T07:38:20.215Z,1012.41
2016-09-26T07:39:20.216Z,1012.4
2016-09-26T07:40:20.171Z,1012.45
2016-09-26T07:41:20.498Z,1012.44
2016-09-26T07:42:20.352Z,1012.4
2016-09-26T07:43:20.156Z,1012.42
2016-09-26T07:44:20.152Z,1012.44
2016-09-26T07:45:20.068Z,1012.45
2016-09-26T07:46:20.412Z,1012.44
2016-09-26T07:47:20.181Z,1012.47
2016-09-26T07:48:20.573Z,1012.48
2016-09-26T07:49:20.349Z,1012.5
2016-09-26T07:50:20.278Z,1012.51
2016-09-26T07:51:20.641Z,1012.51
2016-09-26T07:52:20.491Z,1012.49
2016-09-26T07:53:20.559Z,1012.5
2016-09-26T07:54:20.271Z,1012.49
2016-09-26T07:55:20.497Z,1012.54
2016-09-26T07:56:20.411Z,1012.55
2016-09-26T07:57:20.889Z,1012.55
2016-09-26T07:58:20.451Z,1012.58
2016-09-26T07:59:20.464Z,1012.61
2016-09-26T08:00:20.577Z,1012.64
2016-09-26T08:01:20.626Z,1012.61
2016-09-26T08:02:20.790Z,1012.62
2016-09-26T08:03:20.506Z,1012.61
2016-09-26T08:04:20.514Z,1012.61
2016-09-26T08:05:20.576Z,1012.61
2016-09-26T08:06:20.549Z,1012.66
2016-09-26T08:07:20.739Z,1012.64
2016-09-26T08:08:20.955Z,1012.66
2016-09-26T08:09:21.415Z,1012.67
2016-09-26T08:10:21.248Z,1012.65
2016-09-26T08:11:21.059Z,1012.68
2016-09-26T08:12:20.989Z,1012.69
2016-09-26T08:13:20.873Z,1012.69
2016-09-26T08:14:20.969Z,1012.74
2016-09-26T08:15:21.310Z,1012.75
2016-09-26T08:16:21.036Z,1012.73
2016-09-26T08:17:20.803Z,1012.73
2016-09-26T08:18:21.455Z,1012.72
2016-09-26T08:19:20.779Z,1012.75
2016-09-26T08:20:21.249Z,1012.78
2016-09-26T08:21:21.583Z,1012.77
2016-09-26T08:22:21.336Z,1012.8
2016-09-26T08:23:21.267Z,1012.83
2016-09-26T08:24:21.100Z,1012.79
2016-09-26T08:25:21.046Z,1012.82
2016-09-26T08:26:21.306Z,1012.79
2016-09-26T08:27:21.678Z,1012.81
2016-09-26T08:28:21.730Z,1012.79
2016-09-26T08:29:21.521Z,1012.79
2016-09-26T08:30:21.256Z,1012.73
2016-09-26T08:31:21.260Z,1012.8
2016-09-26T08:32:21.331Z,1012.8
2016-09-26T08:33:21.489Z,1012.86
2016-09-26T08:34:21.175Z,1012.81
2016-09-26T08:35:21.376Z,1012.82
2016-09-26T08:36:22.597Z,1012.82
2016-09-26T08:37:21.430Z,1012.81
2016-09-26T08:38:21.422Z,1012.8
2016-09-26T08:39:21.367Z,1012.82
2016-09-26T08:40:21.593Z,1012.87
2016-09-26T08:41:21.503Z,1012.86
2016-09-26T08:42:21.545Z,1012.88
2016-09-26T08:43:21.595Z,1012.89
2016-09-26T08:44:21.382Z,1012.94
2016-09-26T08:45:21.615Z,1012.87
2016-09-26T08:46:22.102Z,1012.87
2016-09-26T08:47:21.552Z,1012.86
2016-09-26T08:48:21.739Z,1012.91
2016-09-26T08:49:21.666Z,1012.96
2016-09-26T08:50:21.494Z,1013
2016-09-26T08:51:21.819Z,1013.01
2016-09-26T08:52:22.033Z,1013.03
2016-09-26T08:53:21.987Z,1013.07
2016-09-26T08:54:21.835Z,1013.1
2016-09-26T08:55:21.937Z,1013.11
2016-09-26T08:56:22.566Z,1013.11
2016-09-26T08:57:21.839Z,1013.08
2016-09-26T08:58:21.877Z,1013.14
2016-09-26T08:59:21.945Z,1013.15
2016-09-26T09:00:22.002Z,1013.12
2016-09-26T09:01:21.994Z,1013.09
2016-09-26T09:02:21.782Z,1013.05
2016-09-26T09:03:21.891Z,1013.03
2016-09-26T09:04:21.849Z,1013.04
2016-09-26T09:05:21.844Z,1013.03
2016-09-26T09:06:21.942Z,1013.03
2016-09-26T09:07:21.893Z,1013.01
2016-09-26T09:08:21.942Z,1013.06
2016-09-26T09:09:21.990Z,1013.01
2016-09-26T09:10:21.983Z,1012.96
2016-09-26T09:11:22.027Z,1012.93
2016-09-26T09:12:21.977Z,1012.96
2016-09-26T09:13:21.989Z,1012.93
2016-09-26T09:14:22.250Z,1012.92
2016-09-26T09:15:22.174Z,1012.93
2016-09-26T09:16:22.645Z,1012.91
2016-09-26T09:17:22.233Z,1012.92
2016-09-26T09:18:22.206Z,1012.87
2016-09-26T09:19:22.299Z,1012.93
2016-09-26T09:20:22.206Z,1012.93
2016-09-26T09:21:22.523Z,1012.98
2016-09-26T09:22:22.382Z,1013.02
2016-09-26T09:23:22.686Z,1013.04
2016-09-26T09:24:22.624Z,1013.04
2016-09-26T09:25:22.272Z,1012.99
2016-09-26T09:26:22.394Z,1012.98
2016-09-26T09:27:22.429Z,1012.93
2016-09-26T09:28:22.508Z,1012.98
2016-09-26T09:29:22.476Z,1012.99
2016-09-26T09:30:22.523Z,1012.99
2016-09-26T09:31:22.486Z,1012.98
2016-09-26T09:32:23.030Z,1013.07
2016-09-26T09:33:22.656Z,1013
2016-09-26T09:34:22.659Z,1013.02
2016-09-26T09:35:22.601Z,1012.98
2016-09-26T09:36:22.869Z,1012.93
2016-09-26T09:37:23.166Z,1012.88
2016-09-26T09:38:22.903Z,1012.89
2016-09-26T09:39:22.907Z,1012.94
2016-09-26T09:40:22.896Z,1012.92
2016-09-26T09:41:23.220Z,1012.95
2016-09-26T09:42:22.698Z,1012.87
2016-09-26T09:43:22.876Z,1012.84
2016-09-26T09:44:22.864Z,1012.78
2016-09-26T09:45:23.552Z,1012.79
2016-09-26T09:46:23.277Z,1012.8
2016-09-26T09:47:22.894Z,1012.75
2016-09-26T09:48:22.910Z,1012.76
2016-09-26T09:49:23.107Z,1012.69
2016-09-26T09:50:23.068Z,1012.67
2016-09-26T09:51:23.244Z,1012.68
2016-09-26T09:52:23.683Z,1012.74
2016-09-26T09:53:22.993Z,1012.71
2016-09-26T09:54:23.257Z,1012.72
2016-09-26T09:55:23.114Z,1012.69
2016-09-26T09:56:23.323Z,1012.7
2016-09-26T09:57:23.243Z,1012.71
2016-09-26T09:58:23.188Z,1012.69
2016-09-26T09:59:23.306Z,1012.67
2016-09-26T10:00:23.547Z,1012.69
2016-09-26T10:01:23.345Z,1012.69
2016-09-26T10:02:23.368Z,1012.7
2016-09-26T10:03:23.440Z,1012.68
2016-09-26T10:04:23.674Z,1012.68
2016-09-26T10:05:23.483Z,1012.62
2016-09-26T10:06:23.381Z,1012.63
2016-09-26T10:07:23.407Z,1012.6
2016-09-26T10:08:23.436Z,1012.64
2016-09-26T10:09:23.829Z,1012.64
2016-09-26T10:10:23.423Z,1012.68
2016-09-26T10:11:23.815Z,1012.64
2016-09-26T10:12:23.549Z,1012.69
2016-09-26T10:13:23.411Z,1012.68
2016-09-26T10:14:24.035Z,1012.72
2016-09-26T10:15:23.529Z,1012.75
2016-09-26T10:16:24.361Z,1012.77
2016-09-26T10:17:23.979Z,1012.77
2016-09-26T10:18:24.352Z,1012.77
2016-09-26T10:19:23.812Z,1012.78
2016-09-26T10:20:24.340Z,1012.8
2016-09-26T10:21:24.132Z,1012.76
2016-09-26T10:22:23.964Z,1012.74
2016-09-26T10:23:24.265Z,1012.75
2016-09-26T10:24:24.137Z,1012.73
2016-09-26T10:25:24.295Z,1012.74
2016-09-26T10:26:24.516Z,1012.78
2016-09-26T10:27:24.088Z,1012.76
2016-09-26T10:28:24.669Z,1012.78
2016-09-26T10:29:24.167Z,1012.8
2016-09-26T10:30:24.939Z,1012.71
2016-09-26T10:31:24.051Z,1012.7
2016-09-26T10:32:24.442Z,1012.68
2016-09-26T10:33:24.693Z,1012.73
2016-09-26T10:34:24.418Z,1012.79
2016-09-26T10:35:24.779Z,1012.81
2016-09-26T10:36:24.416Z,1012.85
2016-09-26T10:37:24.131Z,1012.85
2016-09-26T10:38:24.268Z,1012.91
2016-09-26T10:39:24.441Z,1012.9
2016-09-26T10:40:24.833Z,1012.87
2016-09-26T10:41:24.222Z,1012.85
2016-09-26T10:42:24.547Z,1012.86
2016-09-26T10:43:24.434Z,1012.87
2016-09-26T10:44:24.886Z,1012.94
2016-09-26T10:45:24.550Z,1012.91
2016-09-26T10:46:24.767Z,1012.93
2016-09-26T10:47:24.798Z,1012.91
2016-09-26T10:48:24.363Z,1012.98
2016-09-26T10:49:24.557Z,1012.95
2016-09-26T10:50:24.572Z,1013.02
2016-09-26T10:51:24.908Z,1012.99
2016-09-26T10:52:24.632Z,1012.98
2016-09-26T10:53:24.865Z,1013.01
2016-09-26T10:54:24.716Z,1013.04
2016-09-26T10:55:24.849Z,1012.98
2016-09-26T10:56:24.791Z,1013
2016-09-26T10:57:24.901Z,1012.95
2016-09-26T10:58:24.850Z,1012.97
2016-09-26T10:59:24.780Z,1012.94
2016-09-26T11:00:24.949Z,1012.97
2016-09-26T11:01:24.916Z,1012.95
2016-09-26T11:02:24.850Z,1012.96
2016-09-26T11:03:25.244Z,1012.97
2016-09-26T11:04:25.200Z,1012.97
2016-09-26T11:05:24.910Z,1012.98
2016-09-26T11:06:25.758Z,1012.95
2016-09-26T11:07:25.086Z,1012.91
2016-09-26T11:08:25.058Z,1012.92
2016-09-26T11:09:25.395Z,1012.89
2016-09-26T11:10:25.013Z,1012.93
2016-09-26T11:11:24.997Z,1012.94
2016-09-26T11:12:25.127Z,1012.89
2016-09-26T11:13:25.137Z,1012.9
2016-09-26T11:14:25.361Z,1012.89
2016-09-26T11:15:25.410Z,1012.89
2016-09-26T11:16:25.348Z,1012.9
2016-09-26T11:17:25.504Z,1012.84
2016-09-26T11:18:25.487Z,1012.76
2016-09-26T11:19:25.301Z,1012.81
2016-09-26T11:20:25.426Z,1012.78
2016-09-26T11:21:25.470Z,1012.75
2016-09-26T11:22:25.447Z,1012.75
2016-09-26T11:23:25.466Z,1012.74
2016-09-26T11:24:25.588Z,1012.75
2016-09-26T11:25:25.425Z,1012.72
2016-09-26T11:26:25.405Z,1012.73
2016-09-26T11:27:25.591Z,1012.72
2016-09-26T11:28:25.510Z,1012.72
2016-09-26T11:29:25.814Z,1012.69
2016-09-26T11:30:25.687Z,1012.72
2016-09-26T11:31:26.142Z,1012.68
2016-09-26T11:32:25.892Z,1012.69
2016-09-26T11:33:25.744Z,1012.7
2016-09-26T11:34:25.916Z,1012.65
2016-09-26T11:35:25.720Z,1012.69
2016-09-26T11:36:25.769Z,1012.66
2016-09-26T11:37:25.835Z,1012.66
2016-09-26T11:38:25.983Z,1012.63
2016-09-26T11:39:26.009Z,1012.67
2016-09-26T11:40:26.233Z,1012.61
2016-09-26T11:41:26.496Z,1012.59
2016-09-26T11:42:25.930Z,1012.6
2016-09-26T11:43:26.395Z,1012.58
2016-09-26T11:44:25.967Z,1012.58
2016-09-26T11:45:26.075Z,1012.57
2016-09-26T11:46:26.205Z,1012.55
2016-09-26T11:47:25.971Z,1012.55
2016-09-26T11:48:26.225Z,1012.52
2016-09-26T11:49:26.022Z,1012.55
2016-09-26T11:50:26.222Z,1012.6
2016-09-26T11:51:26.164Z,1012.57
2016-09-26T11:52:26.362Z,1012.57
2016-09-26T11:53:26.251Z,1012.56
2016-09-26T11:54:26.324Z,1012.53
2016-09-26T11:55:26.763Z,1012.52
2016-09-26T11:56:27.177Z,1012.52
2016-09-26T11:57:26.600Z,1012.51
2016-09-26T11:58:26.836Z,1012.5
2016-09-26T11:59:26.253Z,1012.5
2016-09-26T12:00:26.533Z,1012.53
2016-09-26T12:01:26.546Z,1012.54
2016-09-26T12:02:26.404Z,1012.55
2016-09-26T12:03:26.473Z,1012.54
2016-09-26T12:04:26.413Z,1012.56
2016-09-26T12:05:26.519Z,1012.55
2016-09-26T12:06:26.650Z,1012.55
2016-09-26T12:07:27.507Z,1012.56
2016-09-26T12:08:26.556Z,1012.52